TimeWET,TemperatureF,Dew PointF,Humidity,Sea Level PressureIn,VisibilityMPH,Wind Direction,Wind SpeedMPH,Gust SpeedMPH,PrecipitationIn,Events,Conditions,WindDirDegrees,DateUTC
12:00 AM,65,56,64,30.03,6,South,3.5,,,,,190,2011-11-01 00:00:00
12:00 AM,64.4,55.4,73,30.06,-9999.0,SSW,4.6,-,N/A,,Clear,200,2011-11-01 00:00:00
12:30 AM,64.4,53.6,68,30.06,-9999.0,South,5.8,-,N/A,,Clear,170,2011-11-01 00:30:00
1:00 AM,64.4,53.6,68,30.06,-9999.0,Variable,2.3,-,N/A,,Clear,0,2011-11-01 01:00:00
1:30 AM,60.8,53.6,77,30.06,-9999.0,Variable,2.3,-,N/A,,Clear,0,2011-11-01 01:30:00
2:00 AM,60.8,53.6,77,30.06,-9999.0,Calm,Calm,-,N/A,,Clear,0,2011-11-01 02:00:00
2:30 AM,60.8,53.6,77,30.06,-9999.0,Calm,Calm,-,N/A,,Clear,0,2011-11-01 02:30:00
3:00 AM,60,54,76,30.04,6,Calm,Calm,,,,,,2011-11-01 03:00:00
3:00 AM,59.0,53.6,82,30.06,-9999.0,Calm,Calm,-,N/A,,Clear,0,2011-11-01 03:00:00
3:30 AM,60.8,53.6,77,30.06,-9999.0,SSE,2.3,-,N/A,,Clear,150,2011-11-01 03:30:00
4:00 AM,60.8,53.6,77,30.06,-9999.0,Calm,Calm,-,N/A,,Clear,0,2011-11-01 04:00:00
4:30 AM,59.0,53.6,82,30.06,-9999.0,Calm,Calm,-,N/A,,Clear,0,2011-11-01 04:30:00
5:00 AM,57.2,53.6,88,30.04,-9999.0,ENE,2.3,-,N/A,,Clear,60,2011-11-01 05:00:00
5:30 AM,57.2,53.6,88,30.06,5.6,ESE,2.3,-,N/A,,Unknown,120,2011-11-01 05:30:00
6:00 AM,59,54,77,30.04,6,SE,3.5,,,,,140,2011-11-01 06:00:00
6:00 AM,59.0,53.6,82,30.06,5.6,SE,3.5,-,N/A,,Unknown,140,2011-11-01 06:00:00
6:30 AM,57.2,53.6,88,30.06,5.6,SE,1.2,-,N/A,,Unknown,130,2011-11-01 06:30:00
7:00 AM,59.0,53.6,82,30.06,-9999.0,SE,4.6,-,N/A,,Clear,140,2011-11-01 07:00:00
7:30 AM,59.0,53.6,82,30.06,-9999.0,East,3.5,-,N/A,,Clear,90,2011-11-01 07:30:00
8:00 AM,64.4,53.6,68,30.06,-9999.0,Variable,2.3,-,N/A,,Clear,0,2011-11-01 08:00:00
8:30 AM,68.0,51.8,56,30.09,-9999.0,ESE,3.5,-,N/A,,Clear,110,2011-11-01 08:30:00
9:00 AM,70,53,45,30.04,6,ENE,3.5,,,,Clear,60,2011-11-01 09:00:00
9:00 AM,69.8,53.6,56,30.09,-9999.0,ENE,3.5,-,N/A,,Clear,60,2011-11-01 09:00:00
9:30 AM,71.6,53.6,53,30.09,-9999.0,ENE,3.5,-,N/A,,Clear,60,2011-11-01 09:30:00
10:00 AM,73.4,51.8,47,30.09,5.6,NE,4.6,-,N/A,,Unknown,50,2011-11-01 10:00:00
10:30 AM,77.0,51.8,41,30.09,-9999.0,Variable,3.5,-,N/A,,Clear,0,2011-11-01 10:30:00
11:00 AM,78.8,51.8,39,30.06,-9999.0,Variable,2.3,-,N/A,,Clear,0,2011-11-01 11:00:00
11:30 AM,82.4,51.8,35,30.06,-9999.0,Variable,2.3,-,N/A,,Clear,0,2011-11-01 11:30:00
12:00 PM,82,51,24,29.97,6,NW,3.5,,,,Clear,320,2011-11-01 12:00:00
12:00 PM,82.4,51.8,35,30.06,-9999.0,NNW,3.5,-,N/A,,Clear,330,2011-11-01 12:00:00
12:30 PM,84.2,51.8,33,30.04,-9999.0,NNW,3.5,-,N/A,,Clear,330,2011-11-01 12:30:00
1:00 PM,84.2,44.6,25,30.04,-9999.0,Variable,3.5,-,N/A,,Clear,0,2011-11-01 13:00:00
1:30 PM,84.2,41.0,22,30.01,-9999.0,Variable,4.6,-,N/A,,Clear,0,2011-11-01 13:30:00
2:00 PM,86.0,42.8,22,30.01,-9999.0,North,3.5,-,N/A,,Clear,360,2011-11-01 14:00:00
2:30 PM,86.0,44.6,23,30.01,-9999.0,Variable,2.3,-,N/A,,Clear,0,2011-11-01 14:30:00
3:00 PM,85,45,15,29.90,6,West,4.6,,,,Clear,280,2011-11-01 15:00:00
3:00 PM,86.0,44.6,23,29.98,-9999.0,West,5.8,-,N/A,,Clear,280,2011-11-01 15:00:00
3:30 PM,86.0,44.6,23,29.98,-9999.0,NW,4.6,-,N/A,,Clear,310,2011-11-01 15:30:00
4:00 PM,84.2,44.6,25,29.98,-9999.0,WNW,5.8,-,N/A,,Clear,300,2011-11-01 16:00:00
4:30 PM,84.2,42.8,23,29.98,-9999.0,NW,6.9,-,N/A,,Clear,310,2011-11-01 16:30:00
5:00 PM,80.6,44.6,28,29.98,-9999.0,West,8.1,-,N/A,,Clear,270,2011-11-01 17:00:00
5:30 PM,77.0,46.4,34,30.01,-9999.0,West,6.9,-,N/A,,Clear,260,2011-11-01 17:30:00
6:00 PM,74,48,29,29.95,6,West,6.9,,,,Clear,260,2011-11-01 18:00:00
6:00 PM,75.2,48.2,38,30.01,-9999.0,West,6.9,-,N/A,,Clear,260,2011-11-01 18:00:00
6:30 PM,73.4,48.2,41,30.01,-9999.0,WSW,6.9,-,N/A,,Clear,250,2011-11-01 18:30:00
7:00 PM,69.8,48.2,46,30.04,-9999.0,WSW,4.6,-,N/A,,Clear,250,2011-11-01 19:00:00
7:30 PM,68.0,48.2,49,30.04,-9999.0,WSW,5.8,-,N/A,,Clear,250,2011-11-01 19:30:00
8:00 PM,69.8,50.0,49,30.04,-9999.0,WSW,8.1,-,N/A,,Clear,250,2011-11-01 20:00:00
8:30 PM,66.2,53.6,64,30.04,-9999.0,WSW,5.8,-,N/A,,Clear,250,2011-11-01 20:30:00
9:00 PM,67,54,55,30.01,6,SW,5.8,,,,Clear,230,2011-11-01 21:00:00
9:00 PM,66.2,53.6,64,30.06,-9999.0,WSW,5.8,-,N/A,,Clear,240,2011-11-01 21:00:00
9:30 PM,66.2,57.2,73,30.06,-9999.0,WSW,5.8,-,N/A,,Clear,240,2011-11-01 21:30:00
10:00 PM,66.2,57.2,73,30.06,-9999.0,SW,8.1,-,N/A,,Clear,220,2011-11-01 22:00:00
10:30 PM,66.2,57.2,73,30.06,-9999.0,SW,6.9,-,N/A,,Clear,220,2011-11-01 22:30:00
11:00 PM,68.0,59.0,73,30.04,-9999.0,SSW,5.8,-,N/A,,Clear,210,2011-11-01 23:00:00
11:30 PM,64.4,57.2,77,30.04,-9999.0,SW,3.5,-,N/A,,Clear,230,2011-11-01 23:30:00